sensor_id;sensor_type;location;lat;lon;timestamp;P1;durP1;ratioP1;P2;durP2;ratioP2
15699;SDS011;7950;42.744;23.174;2023-02-28T00:01:55;18.60;;;12.00;;
15699;SDS011;7950;42.744;23.174;2023-02-28T00:04:24;21.73;;;13.80;;
15699;SDS011;7950;42.744;23.174;2023-02-28T00:06:53;24.27;;;13.80;;
15699;SDS011;7950;42.744;23.174;2023-02-28T00:09:22;17.00;;;10.97;;
15699;SDS011;7950;42.744;23.174;2023-02-28T00:11:50;15.93;;;10.27;;
15699;SDS011;7950;42.744;23.174;2023-02-28T00:14:31;13.37;;;9.97;;
15699;SDS011;7950;42.744;23.174;2023-02-28T00:17:00;16.47;;;10.67;;
15699;SDS011;7950;42.744;23.174;2023-02-28T00:19:28;17.17;;;9.77;;
15699;SDS011;7950;42.744;23.174;2023-02-28T00:21:57;16.13;;;10.03;;
15699;SDS011;7950;42.744;23.174;2023-02-28T00:24:25;16.57;;;11.60;;
15699;SDS011;7950;42.744;23.174;2023-02-28T00:26:54;16.53;;;10.90;;
15699;SDS011;7950;42.744;23.174;2023-02-28T00:29:22;14.67;;;10.57;;
15699;SDS011;7950;42.744;23.174;2023-02-28T00:31:52;16.30;;;10.23;;
15699;SDS011;7950;42.744;23.174;2023-02-28T00:34:34;16.93;;;10.90;;
15699;SDS011;7950;42.744;23.174;2023-02-28T00:37:04;19.30;;;10.37;;
15699;SDS011;7950;42.744;23.174;2023-02-28T00:39:35;15.33;;;9.63;;
15699;SDS011;7950;42.744;23.174;2023-02-28T00:42:05;14.53;;;10.17;;
15699;SDS011;7950;42.744;23.174;2023-02-28T00:44:34;13.93;;;9.10;;
15699;SDS011;7950;42.744;23.174;2023-02-28T00:47:04;14.27;;;9.93;;
15699;SDS011;7950;42.744;23.174;2023-02-28T00:49:33;15.13;;;9.73;;
15699;SDS011;7950;42.744;23.174;2023-02-28T00:52:02;14.07;;;9.40;;
15699;SDS011;7950;42.744;23.174;2023-02-28T00:54:30;15.90;;;10.23;;
15699;SDS011;7950;42.744;23.174;2023-02-28T00:56:59;13.40;;;9.80;;
15699;SDS011;7950;42.744;23.174;2023-02-28T00:59:27;14.40;;;9.90;;
15699;SDS011;7950;42.744;23.174;2023-02-28T01:01:56;13.70;;;9.67;;
15699;SDS011;7950;42.744;23.174;2023-02-28T01:04:26;14.50;;;9.80;;
15699;SDS011;7950;42.744;23.174;2023-02-28T01:06:54;17.27;;;10.67;;
15699;SDS011;7950;42.744;23.174;2023-02-28T01:09:23;15.97;;;10.53;;
15699;SDS011;7950;42.744;23.174;2023-02-28T01:11:51;12.77;;;9.40;;
15699;SDS011;7950;42.744;23.174;2023-02-28T01:14:20;13.20;;;9.50;;
15699;SDS011;7950;42.744;23.174;2023-02-28T01:16:48;13.60;;;9.70;;
15699;SDS011;7950;42.744;23.174;2023-02-28T01:19:18;15.53;;;10.43;;
15699;SDS011;7950;42.744;23.174;2023-02-28T01:21:48;15.80;;;10.50;;
15699;SDS011;7950;42.744;23.174;2023-02-28T01:24:16;16.33;;;10.53;;
15699;SDS011;7950;42.744;23.174;2023-02-28T01:26:45;17.30;;;11.10;;
15699;SDS011;7950;42.744;23.174;2023-02-28T01:29:13;14.07;;;9.97;;
15699;SDS011;7950;42.744;23.174;2023-02-28T01:34:37;15.70;;;10.63;;
15699;SDS011;7950;42.744;23.174;2023-02-28T01:37:07;16.53;;;10.37;;
15699;SDS011;7950;42.744;23.174;2023-02-28T01:39:35;14.57;;;10.50;;
15699;SDS011;7950;42.744;23.174;2023-02-28T01:42:04;22.40;;;13.57;;
15699;SDS011;7950;42.744;23.174;2023-02-28T01:47:50;20.70;;;12.53;;
15699;SDS011;7950;42.744;23.174;2023-02-28T01:50:23;18.33;;;12.63;;
15699;SDS011;7950;42.744;23.174;2023-02-28T01:52:59;18.00;;;12.37;;
15699;SDS011;7950;42.744;23.174;2023-02-28T01:55:33;18.30;;;11.60;;
15699;SDS011;7950;42.744;23.174;2023-02-28T01:58:04;21.27;;;12.37;;
15699;SDS011;7950;42.744;23.174;2023-02-28T02:00:35;23.10;;;13.00;;
15699;SDS011;7950;42.744;23.174;2023-02-28T02:03:08;24.83;;;15.70;;
15699;SDS011;7950;42.744;23.174;2023-02-28T02:05:42;23.40;;;14.57;;
15699;SDS011;7950;42.744;23.174;2023-02-28T02:08:16;22.40;;;13.63;;
15699;SDS011;7950;42.744;23.174;2023-02-28T02:10:50;19.00;;;12.20;;
15699;SDS011;7950;42.744;23.174;2023-02-28T02:13:34;24.70;;;15.93;;
15699;SDS011;7950;42.744;23.174;2023-02-28T02:16:27;26.63;;;16.20;;
15699;SDS011;7950;42.744;23.174;2023-02-28T02:19:21;23.07;;;14.73;;
15699;SDS011;7950;42.744;23.174;2023-02-28T02:25:37;19.93;;;11.37;;
15699;SDS011;7950;42.744;23.174;2023-02-28T02:32:02;26.60;;;13.50;;
15699;SDS011;7950;42.744;23.174;2023-02-28T02:34:58;22.70;;;12.80;;
15699;SDS011;7950;42.744;23.174;2023-02-28T02:37:40;23.53;;;13.27;;
15699;SDS011;7950;42.744;23.174;2023-02-28T02:40:19;23.20;;;13.47;;
15699;SDS011;7950;42.744;23.174;2023-02-28T02:42:51;21.37;;;13.00;;
15699;SDS011;7950;42.744;23.174;2023-02-28T02:45:28;22.33;;;12.83;;
15699;SDS011;7950;42.744;23.174;2023-02-28T02:48:03;22.37;;;11.50;;
15699;SDS011;7950;42.744;23.174;2023-02-28T02:53:40;22.37;;;13.23;;
15699;SDS011;7950;42.744;23.174;2023-02-28T02:56:16;22.60;;;12.27;;
15699;SDS011;7950;42.744;23.174;2023-02-28T02:58:52;24.20;;;12.23;;
15699;SDS011;7950;42.744;23.174;2023-02-28T03:01:26;22.73;;;12.50;;
15699;SDS011;7950;42.744;23.174;2023-02-28T03:04:00;18.33;;;10.00;;
15699;SDS011;7950;42.744;23.174;2023-02-28T03:06:33;17.13;;;9.70;;
15699;SDS011;7950;42.744;23.174;2023-02-28T03:09:02;18.40;;;10.40;;
15699;SDS011;7950;42.744;23.174;2023-02-28T03:11:32;19.00;;;9.83;;
15699;SDS011;7950;42.744;23.174;2023-02-28T03:14:13;19.43;;;10.37;;
15699;SDS011;7950;42.744;23.174;2023-02-28T03:20:17;16.57;;;10.13;;
15699;SDS011;7950;42.744;23.174;2023-02-28T03:23:09;14.10;;;8.87;;
15699;SDS011;7950;42.744;23.174;2023-02-28T03:25:47;16.13;;;9.60;;
15699;SDS011;7950;42.744;23.174;2023-02-28T03:28:27;18.13;;;9.87;;
15699;SDS011;7950;42.744;23.174;2023-02-28T03:31:10;16.27;;;9.63;;
15699;SDS011;7950;42.744;23.174;2023-02-28T03:33:47;20.43;;;10.23;;
15699;SDS011;7950;42.744;23.174;2023-02-28T03:36:27;15.53;;;9.50;;
15699;SDS011;7950;42.744;23.174;2023-02-28T03:39:05;11.73;;;8.00;;
15699;SDS011;7950;42.744;23.174;2023-02-28T03:44:59;16.40;;;9.63;;
15699;SDS011;7950;42.744;23.174;2023-02-28T03:47:35;19.07;;;10.80;;
15699;SDS011;7950;42.744;23.174;2023-02-28T03:50:10;22.10;;;11.53;;
15699;SDS011;7950;42.744;23.174;2023-02-28T03:52:46;24.90;;;11.27;;
15699;SDS011;7950;42.744;23.174;2023-02-28T03:55:22;25.83;;;10.87;;
15699;SDS011;7950;42.744;23.174;2023-02-28T03:57:53;16.93;;;9.70;;
15699;SDS011;7950;42.744;23.174;2023-02-28T04:00:30;18.87;;;10.77;;
15699;SDS011;7950;42.744;23.174;2023-02-28T04:03:03;16.93;;;9.90;;
15699;SDS011;7950;42.744;23.174;2023-02-28T04:05:32;24.80;;;10.80;;
15699;SDS011;7950;42.744;23.174;2023-02-28T04:08:16;17.23;;;10.20;;
15699;SDS011;7950;42.744;23.174;2023-02-28T04:10:47;15.07;;;10.50;;
15699;SDS011;7950;42.744;23.174;2023-02-28T04:13:28;16.73;;;10.00;;
15699;SDS011;7950;42.744;23.174;2023-02-28T04:15:57;17.93;;;9.67;;
15699;SDS011;7950;42.744;23.174;2023-02-28T04:18:25;16.33;;;10.00;;
15699;SDS011;7950;42.744;23.174;2023-02-28T04:20:54;16.87;;;9.20;;
15699;SDS011;7950;42.744;23.174;2023-02-28T04:23:22;17.63;;;10.13;;
15699;SDS011;7950;42.744;23.174;2023-02-28T04:25:55;20.60;;;12.00;;
15699;SDS011;7950;42.744;23.174;2023-02-28T04:28:24;19.57;;;11.03;;
15699;SDS011;7950;42.744;23.174;2023-02-28T04:30:54;17.73;;;10.23;;
15699;SDS011;7950;42.744;23.174;2023-02-28T04:33:23;18.97;;;11.10;;
15699;SDS011;7950;42.744;23.174;2023-02-28T04:39:12;22.30;;;10.90;;
15699;SDS011;7950;42.744;23.174;2023-02-28T04:41:42;21.63;;;11.07;;
15699;SDS011;7950;42.744;23.174;2023-02-28T04:44:11;22.80;;;11.87;;
15699;SDS011;7950;42.744;23.174;2023-02-28T04:46:40;24.17;;;12.60;;
15699;SDS011;7950;42.744;23.174;2023-02-28T04:49:09;22.80;;;12.73;;
15699;SDS011;7950;42.744;23.174;2023-02-28T04:51:40;22.33;;;11.73;;
15699;SDS011;7950;42.744;23.174;2023-02-28T04:54:09;20.67;;;11.10;;
15699;SDS011;7950;42.744;23.174;2023-02-28T04:59:32;40.73;;;20.60;;
15699;SDS011;7950;42.744;23.174;2023-02-28T05:02:01;76.40;;;43.60;;
15699;SDS011;7950;42.744;23.174;2023-02-28T05:04:33;58.90;;;34.00;;
15699;SDS011;7950;42.744;23.174;2023-02-28T05:07:03;41.90;;;21.37;;
15699;SDS011;7950;42.744;23.174;2023-02-28T05:09:31;29.93;;;15.47;;
15699;SDS011;7950;42.744;23.174;2023-02-28T05:12:01;19.37;;;12.20;;
15699;SDS011;7950;42.744;23.174;2023-02-28T05:14:31;27.87;;;15.33;;
15699;SDS011;7950;42.744;23.174;2023-02-28T05:17:05;23.80;;;11.80;;
15699;SDS011;7950;42.744;23.174;2023-02-28T05:22:53;20.60;;;11.13;;
15699;SDS011;7950;42.744;23.174;2023-02-28T05:25:22;24.87;;;13.00;;
15699;SDS011;7950;42.744;23.174;2023-02-28T05:27:51;25.80;;;11.60;;
15699;SDS011;7950;42.744;23.174;2023-02-28T05:30:21;32.40;;;16.63;;
15699;SDS011;7950;42.744;23.174;2023-02-28T05:32:49;37.13;;;21.57;;
15699;SDS011;7950;42.744;23.174;2023-02-28T05:35:19;30.20;;;18.40;;
15699;SDS011;7950;42.744;23.174;2023-02-28T05:37:47;23.87;;;15.33;;
15699;SDS011;7950;42.744;23.174;2023-02-28T05:40:16;51.87;;;40.20;;
15699;SDS011;7950;42.744;23.174;2023-02-28T05:42:46;24.10;;;15.40;;
15699;SDS011;7950;42.744;23.174;2023-02-28T05:45:17;18.67;;;11.57;;
15699;SDS011;7950;42.744;23.174;2023-02-28T05:47:47;17.57;;;10.00;;
15699;SDS011;7950;42.744;23.174;2023-02-28T05:50:15;17.17;;;10.53;;
15699;SDS011;7950;42.744;23.174;2023-02-28T05:52:44;16.83;;;9.70;;
15699;SDS011;7950;42.744;23.174;2023-02-28T05:55:16;17.43;;;10.80;;
15699;SDS011;7950;42.744;23.174;2023-02-28T05:57:45;18.50;;;11.00;;
15699;SDS011;7950;42.744;23.174;2023-02-28T06:00:14;21.17;;;11.83;;
15699;SDS011;7950;42.744;23.174;2023-02-28T06:02:44;19.30;;;10.90;;
15699;SDS011;7950;42.744;23.174;2023-02-28T06:05:14;21.13;;;12.70;;
15699;SDS011;7950;42.744;23.174;2023-02-28T06:07:44;22.03;;;11.90;;
15699;SDS011;7950;42.744;23.174;2023-02-28T06:10:13;19.87;;;11.47;;
15699;SDS011;7950;42.744;23.174;2023-02-28T06:12:42;18.10;;;10.80;;
15699;SDS011;7950;42.744;23.174;2023-02-28T06:15:12;20.17;;;11.17;;
15699;SDS011;7950;42.744;23.174;2023-02-28T06:17:41;20.57;;;11.83;;
15699;SDS011;7950;42.744;23.174;2023-02-28T06:20:11;26.07;;;13.13;;
15699;SDS011;7950;42.744;23.174;2023-02-28T06:22:41;22.87;;;12.20;;
15699;SDS011;7950;42.744;23.174;2023-02-28T06:25:10;25.63;;;13.97;;
15699;SDS011;7950;42.744;23.174;2023-02-28T06:27:39;30.00;;;17.30;;
15699;SDS011;7950;42.744;23.174;2023-02-28T06:30:07;38.40;;;23.13;;
15699;SDS011;7950;42.744;23.174;2023-02-28T06:32:38;27.80;;;16.10;;
15699;SDS011;7950;42.744;23.174;2023-02-28T06:38:01;22.03;;;12.60;;
15699;SDS011;7950;42.744;23.174;2023-02-28T06:40:30;27.30;;;14.97;;
15699;SDS011;7950;42.744;23.174;2023-02-28T06:43:05;25.23;;;12.87;;
15699;SDS011;7950;42.744;23.174;2023-02-28T06:45:35;30.40;;;15.90;;
15699;SDS011;7950;42.744;23.174;2023-02-28T06:48:04;22.97;;;14.07;;
15699;SDS011;7950;42.744;23.174;2023-02-28T06:50:34;26.40;;;14.27;;
15699;SDS011;7950;42.744;23.174;2023-02-28T06:53:03;25.60;;;14.37;;
15699;SDS011;7950;42.744;23.174;2023-02-28T06:55:31;29.10;;;15.83;;
15699;SDS011;7950;42.744;23.174;2023-02-28T06:58:00;30.67;;;16.53;;
15699;SDS011;7950;42.744;23.174;2023-02-28T07:00:29;33.40;;;19.53;;
15699;SDS011;7950;42.744;23.174;2023-02-28T07:02:57;30.30;;;19.30;;
15699;SDS011;7950;42.744;23.174;2023-02-28T07:05:45;38.23;;;22.30;;
15699;SDS011;7950;42.744;23.174;2023-02-28T07:08:13;38.20;;;22.33;;
15699;SDS011;7950;42.744;23.174;2023-02-28T07:10:42;32.87;;;19.17;;
15699;SDS011;7950;42.744;23.174;2023-02-28T07:13:10;29.07;;;17.70;;
15699;SDS011;7950;42.744;23.174;2023-02-28T07:15:39;25.67;;;15.97;;
15699;SDS011;7950;42.744;23.174;2023-02-28T07:18:09;25.63;;;15.43;;
15699;SDS011;7950;42.744;23.174;2023-02-28T07:20:38;26.70;;;16.67;;
15699;SDS011;7950;42.744;23.174;2023-02-28T07:23:07;27.13;;;17.37;;
15699;SDS011;7950;42.744;23.174;2023-02-28T07:25:36;30.23;;;17.87;;
15699;SDS011;7950;42.744;23.174;2023-02-28T07:28:05;28.70;;;18.03;;
15699;SDS011;7950;42.744;23.174;2023-02-28T07:30:34;28.43;;;17.23;;
15699;SDS011;7950;42.744;23.174;2023-02-28T07:33:02;32.80;;;18.17;;
15699;SDS011;7950;42.744;23.174;2023-02-28T07:35:31;30.97;;;16.67;;
15699;SDS011;7950;42.744;23.174;2023-02-28T07:38:00;26.87;;;16.73;;
15699;SDS011;7950;42.744;23.174;2023-02-28T07:40:31;27.50;;;16.57;;
15699;SDS011;7950;42.744;23.174;2023-02-28T07:43:00;25.00;;;15.37;;
15699;SDS011;7950;42.744;23.174;2023-02-28T07:45:29;24.67;;;15.10;;
15699;SDS011;7950;42.744;23.174;2023-02-28T07:48:00;25.43;;;15.20;;
15699;SDS011;7950;42.744;23.174;2023-02-28T07:50:29;24.47;;;15.87;;
15699;SDS011;7950;42.744;23.174;2023-02-28T07:52:58;25.47;;;15.73;;
15699;SDS011;7950;42.744;23.174;2023-02-28T07:55:27;25.53;;;15.73;;
15699;SDS011;7950;42.744;23.174;2023-02-28T07:57:57;26.80;;;16.13;;
15699;SDS011;7950;42.744;23.174;2023-02-28T08:00:32;28.63;;;16.73;;
15699;SDS011;7950;42.744;23.174;2023-02-28T08:03:00;31.00;;;16.97;;
15699;SDS011;7950;42.744;23.174;2023-02-28T08:05:29;28.70;;;17.03;;
15699;SDS011;7950;42.744;23.174;2023-02-28T08:07:57;26.60;;;16.47;;
15699;SDS011;7950;42.744;23.174;2023-02-28T08:10:26;27.73;;;18.97;;
15699;SDS011;7950;42.744;23.174;2023-02-28T08:12:54;33.87;;;20.13;;
15699;SDS011;7950;42.744;23.174;2023-02-28T08:18:18;33.83;;;18.80;;
15699;SDS011;7950;42.744;23.174;2023-02-28T08:20:47;34.47;;;19.23;;
15699;SDS011;7950;42.744;23.174;2023-02-28T08:23:16;32.00;;;18.60;;
15699;SDS011;7950;42.744;23.174;2023-02-28T08:25:45;33.33;;;18.47;;
15699;SDS011;7950;42.744;23.174;2023-02-28T08:28:21;41.30;;;20.63;;
15699;SDS011;7950;42.744;23.174;2023-02-28T08:30:54;40.20;;;19.77;;
15699;SDS011;7950;42.744;23.174;2023-02-28T08:33:23;37.73;;;20.30;;
15699;SDS011;7950;42.744;23.174;2023-02-28T08:36:05;32.37;;;19.10;;
15699;SDS011;7950;42.744;23.174;2023-02-28T08:38:35;33.47;;;18.13;;
15699;SDS011;7950;42.744;23.174;2023-02-28T08:41:05;36.30;;;18.27;;
15699;SDS011;7950;42.744;23.174;2023-02-28T08:43:37;34.33;;;19.27;;
15699;SDS011;7950;42.744;23.174;2023-02-28T08:46:08;34.13;;;19.47;;
15699;SDS011;7950;42.744;23.174;2023-02-28T08:48:40;34.07;;;20.73;;
15699;SDS011;7950;42.744;23.174;2023-02-28T08:51:10;31.80;;;19.47;;
15699;SDS011;7950;42.744;23.174;2023-02-28T08:56:38;35.03;;;20.17;;
15699;SDS011;7950;42.744;23.174;2023-02-28T08:59:08;39.17;;;22.03;;
15699;SDS011;7950;42.744;23.174;2023-02-28T09:01:38;34.57;;;19.97;;
15699;SDS011;7950;42.744;23.174;2023-02-28T09:04:07;34.80;;;20.33;;
15699;SDS011;7950;42.744;23.174;2023-02-28T09:06:37;33.00;;;19.73;;
15699;SDS011;7950;42.744;23.174;2023-02-28T09:09:05;33.20;;;18.93;;
15699;SDS011;7950;42.744;23.174;2023-02-28T09:11:36;36.87;;;20.47;;
15699;SDS011;7950;42.744;23.174;2023-02-28T09:14:04;45.73;;;23.50;;
15699;SDS011;7950;42.744;23.174;2023-02-28T09:16:33;34.77;;;21.77;;
15699;SDS011;7950;42.744;23.174;2023-02-28T09:19:04;34.00;;;19.83;;
15699;SDS011;7950;42.744;23.174;2023-02-28T09:24:50;37.93;;;22.13;;
15699;SDS011;7950;42.744;23.174;2023-02-28T09:27:19;35.87;;;21.03;;
15699;SDS011;7950;42.744;23.174;2023-02-28T09:29:47;30.97;;;20.20;;
15699;SDS011;7950;42.744;23.174;2023-02-28T09:32:16;33.30;;;20.47;;
15699;SDS011;7950;42.744;23.174;2023-02-28T09:34:46;32.67;;;20.67;;
15699;SDS011;7950;42.744;23.174;2023-02-28T09:37:15;33.67;;;20.47;;
15699;SDS011;7950;42.744;23.174;2023-02-28T09:39:43;31.77;;;19.00;;
15699;SDS011;7950;42.744;23.174;2023-02-28T09:42:14;31.67;;;20.60;;
15699;SDS011;7950;42.744;23.174;2023-02-28T09:44:51;31.80;;;18.20;;
15699;SDS011;7950;42.744;23.174;2023-02-28T09:47:23;28.10;;;18.43;;
15699;SDS011;7950;42.744;23.174;2023-02-28T09:50:03;28.60;;;17.07;;
15699;SDS011;7950;42.744;23.174;2023-02-28T09:55:53;30.27;;;18.60;;
15699;SDS011;7950;42.744;23.174;2023-02-28T09:58:28;28.93;;;17.70;;
15699;SDS011;7950;42.744;23.174;2023-02-28T10:01:06;25.97;;;16.80;;
15699;SDS011;7950;42.744;23.174;2023-02-28T10:03:46;30.17;;;17.43;;
15699;SDS011;7950;42.744;23.174;2023-02-28T10:09:21;32.77;;;18.23;;
15699;SDS011;7950;42.744;23.174;2023-02-28T10:11:53;32.60;;;18.80;;
15699;SDS011;7950;42.744;23.174;2023-02-28T10:14:31;27.27;;;17.43;;
15699;SDS011;7950;42.744;23.174;2023-02-28T10:17:02;33.40;;;21.50;;
15699;SDS011;7950;42.744;23.174;2023-02-28T10:19:40;32.60;;;20.83;;
15699;SDS011;7950;42.744;23.174;2023-02-28T10:22:25;30.13;;;20.03;;
15699;SDS011;7950;42.744;23.174;2023-02-28T10:25:04;28.93;;;18.33;;
15699;SDS011;7950;42.744;23.174;2023-02-28T10:27:45;34.03;;;20.87;;
15699;SDS011;7950;42.744;23.174;2023-02-28T10:30:14;31.03;;;20.73;;
15699;SDS011;7950;42.744;23.174;2023-02-28T10:32:45;31.20;;;20.90;;
15699;SDS011;7950;42.744;23.174;2023-02-28T10:35:21;33.33;;;20.90;;
15699;SDS011;7950;42.744;23.174;2023-02-28T10:37:54;35.03;;;21.57;;
15699;SDS011;7950;42.744;23.174;2023-02-28T10:40:27;33.37;;;21.50;;
15699;SDS011;7950;42.744;23.174;2023-02-28T10:43:19;32.07;;;20.57;;
15699;SDS011;7950;42.744;23.174;2023-02-28T10:45:53;38.63;;;21.30;;
15699;SDS011;7950;42.744;23.174;2023-02-28T10:48:30;27.70;;;19.43;;
15699;SDS011;7950;42.744;23.174;2023-02-28T10:51:05;34.77;;;21.03;;
15699;SDS011;7950;42.744;23.174;2023-02-28T10:53:39;37.13;;;21.00;;
15699;SDS011;7950;42.744;23.174;2023-02-28T10:56:26;30.87;;;20.73;;
15699;SDS011;7950;42.744;23.174;2023-02-28T10:58:57;32.90;;;20.10;;
15699;SDS011;7950;42.744;23.174;2023-02-28T11:01:35;29.53;;;19.60;;
15699;SDS011;7950;42.744;23.174;2023-02-28T11:04:20;28.20;;;18.87;;
15699;SDS011;7950;42.744;23.174;2023-02-28T11:07:16;34.10;;;19.57;;
15699;SDS011;7950;42.744;23.174;2023-02-28T11:09:52;33.07;;;19.87;;
15699;SDS011;7950;42.744;23.174;2023-02-28T11:12:25;33.97;;;20.13;;
15699;SDS011;7950;42.744;23.174;2023-02-28T11:15:00;30.93;;;20.57;;
15699;SDS011;7950;42.744;23.174;2023-02-28T11:17:33;41.27;;;27.80;;
15699;SDS011;7950;42.744;23.174;2023-02-28T11:20:04;33.10;;;20.47;;
15699;SDS011;7950;42.744;23.174;2023-02-28T11:22:45;36.07;;;20.00;;
15699;SDS011;7950;42.744;23.174;2023-02-28T11:25:19;29.27;;;17.30;;
15699;SDS011;7950;42.744;23.174;2023-02-28T11:27:57;28.07;;;14.83;;
15699;SDS011;7950;42.744;23.174;2023-02-28T11:30:32;24.30;;;12.57;;
15699;SDS011;7950;42.744;23.174;2023-02-28T11:33:23;24.23;;;12.90;;
15699;SDS011;7950;42.744;23.174;2023-02-28T11:35:56;20.33;;;12.03;;
15699;SDS011;7950;42.744;23.174;2023-02-28T11:38:28;23.97;;;12.57;;
15699;SDS011;7950;42.744;23.174;2023-02-28T11:41:05;23.13;;;12.10;;
15699;SDS011;7950;42.744;23.174;2023-02-28T11:43:53;22.10;;;11.43;;
15699;SDS011;7950;42.744;23.174;2023-02-28T11:46:35;25.00;;;12.40;;
15699;SDS011;7950;42.744;23.174;2023-02-28T11:49:16;21.77;;;12.47;;
15699;SDS011;7950;42.744;23.174;2023-02-28T11:51:59;30.30;;;13.83;;
15699;SDS011;7950;42.744;23.174;2023-02-28T11:54:48;26.47;;;12.97;;
15699;SDS011;7950;42.744;23.174;2023-02-28T11:57:38;28.30;;;13.70;;
15699;SDS011;7950;42.744;23.174;2023-02-28T12:00:28;23.23;;;12.70;;
15699;SDS011;7950;42.744;23.174;2023-02-28T12:06:14;23.70;;;12.47;;
15699;SDS011;7950;42.744;23.174;2023-02-28T12:09:10;24.53;;;12.33;;
15699;SDS011;7950;42.744;23.174;2023-02-28T12:12:04;25.80;;;12.60;;
15699;SDS011;7950;42.744;23.174;2023-02-28T12:14:53;25.27;;;12.63;;
15699;SDS011;7950;42.744;23.174;2023-02-28T12:21:14;24.83;;;11.90;;
15699;SDS011;7950;42.744;23.174;2023-02-28T12:27:07;24.97;;;11.93;;
15699;SDS011;7950;42.744;23.174;2023-02-28T12:29:43;29.87;;;13.77;;
15699;SDS011;7950;42.744;23.174;2023-02-28T12:32:19;21.23;;;11.93;;
15699;SDS011;7950;42.744;23.174;2023-02-28T12:34:55;18.10;;;11.30;;
15699;SDS011;7950;42.744;23.174;2023-02-28T12:37:32;27.67;;;12.53;;
15699;SDS011;7950;42.744;23.174;2023-02-28T12:40:08;23.83;;;12.83;;
15699;SDS011;7950;42.744;23.174;2023-02-28T12:42:43;21.90;;;11.60;;
15699;SDS011;7950;42.744;23.174;2023-02-28T12:45:18;20.60;;;11.03;;
15699;SDS011;7950;42.744;23.174;2023-02-28T12:47:52;25.23;;;11.30;;
15699;SDS011;7950;42.744;23.174;2023-02-28T12:50:27;22.70;;;10.87;;
15699;SDS011;7950;42.744;23.174;2023-02-28T12:56:03;25.97;;;10.00;;
15699;SDS011;7950;42.744;23.174;2023-02-28T12:58:45;16.27;;;9.70;;
15699;SDS011;7950;42.744;23.174;2023-02-28T13:01:24;23.33;;;9.87;;
15699;SDS011;7950;42.744;23.174;2023-02-28T13:04:28;26.93;;;11.67;;
15699;SDS011;7950;42.744;23.174;2023-02-28T13:07:18;26.07;;;10.33;;
15699;SDS011;7950;42.744;23.174;2023-02-28T13:10:22;23.43;;;10.67;;
15699;SDS011;7950;42.744;23.174;2023-02-28T13:12:53;21.40;;;9.50;;
15699;SDS011;7950;42.744;23.174;2023-02-28T13:15:24;28.87;;;11.80;;
15699;SDS011;7950;42.744;23.174;2023-02-28T13:17:56;21.60;;;10.97;;
15699;SDS011;7950;42.744;23.174;2023-02-28T13:20:29;27.97;;;11.40;;
15699;SDS011;7950;42.744;23.174;2023-02-28T13:23:02;23.03;;;10.87;;
15699;SDS011;7950;42.744;23.174;2023-02-28T13:31:26;27.00;;;12.90;;
15699;SDS011;7950;42.744;23.174;2023-02-28T13:34:05;25.60;;;11.30;;
15699;SDS011;7950;42.744;23.174;2023-02-28T13:36:43;23.53;;;10.60;;
15699;SDS011;7950;42.744;23.174;2023-02-28T13:42:23;21.77;;;10.53;;
15699;SDS011;7950;42.744;23.174;2023-02-28T13:45:24;23.17;;;9.00;;
15699;SDS011;7950;42.744;23.174;2023-02-28T13:47:55;23.40;;;10.40;;
15699;SDS011;7950;42.744;23.174;2023-02-28T13:50:29;23.17;;;11.13;;
15699;SDS011;7950;42.744;23.174;2023-02-28T13:56:34;22.13;;;10.57;;
15699;SDS011;7950;42.744;23.174;2023-02-28T13:59:37;21.60;;;9.73;;
15699;SDS011;7950;42.744;23.174;2023-02-28T14:02:29;23.87;;;10.43;;
15699;SDS011;7950;42.744;23.174;2023-02-28T14:05:16;22.17;;;10.80;;
15699;SDS011;7950;42.744;23.174;2023-02-28T14:07:48;29.83;;;11.30;;
15699;SDS011;7950;42.744;23.174;2023-02-28T14:10:27;20.90;;;10.67;;
15699;SDS011;7950;42.744;23.174;2023-02-28T14:16:11;17.80;;;9.77;;
15699;SDS011;7950;42.744;23.174;2023-02-28T14:18:47;24.83;;;11.43;;
15699;SDS011;7950;42.744;23.174;2023-02-28T14:24:39;16.27;;;9.07;;
15699;SDS011;7950;42.744;23.174;2023-02-28T14:27:37;24.23;;;11.63;;
15699;SDS011;7950;42.744;23.174;2023-02-28T14:30:17;22.17;;;9.30;;
15699;SDS011;7950;42.744;23.174;2023-02-28T14:33:26;30.93;;;9.73;;
15699;SDS011;7950;42.744;23.174;2023-02-28T14:36:10;16.77;;;8.70;;
15699;SDS011;7950;42.744;23.174;2023-02-28T14:38:46;19.47;;;9.60;;
15699;SDS011;7950;42.744;23.174;2023-02-28T14:41:21;23.30;;;10.00;;
15699;SDS011;7950;42.744;23.174;2023-02-28T14:44:13;21.57;;;9.17;;
15699;SDS011;7950;42.744;23.174;2023-02-28T14:46:44;20.30;;;10.20;;
15699;SDS011;7950;42.744;23.174;2023-02-28T14:49:21;22.63;;;11.53;;
15699;SDS011;7950;42.744;23.174;2023-02-28T14:52:02;20.03;;;10.30;;
15699;SDS011;7950;42.744;23.174;2023-02-28T14:54:38;16.47;;;9.80;;
15699;SDS011;7950;42.744;23.174;2023-02-28T14:57:19;23.17;;;10.97;;
15699;SDS011;7950;42.744;23.174;2023-02-28T14:59:58;17.43;;;9.77;;
15699;SDS011;7950;42.744;23.174;2023-02-28T15:02:37;20.60;;;10.73;;
15699;SDS011;7950;42.744;23.174;2023-02-28T15:05:19;17.53;;;10.87;;
15699;SDS011;7950;42.744;23.174;2023-02-28T15:08:04;16.03;;;10.40;;
15699;SDS011;7950;42.744;23.174;2023-02-28T15:10:39;15.20;;;9.27;;
15699;SDS011;7950;42.744;23.174;2023-02-28T15:13:12;21.67;;;11.80;;
15699;SDS011;7950;42.744;23.174;2023-02-28T15:15:44;21.47;;;11.10;;
15699;SDS011;7950;42.744;23.174;2023-02-28T15:18:37;16.93;;;11.47;;
15699;SDS011;7950;42.744;23.174;2023-02-28T15:21:48;14.00;;;10.00;;
15699;SDS011;7950;42.744;23.174;2023-02-28T15:24:22;16.50;;;10.50;;
15699;SDS011;7950;42.744;23.174;2023-02-28T15:27:03;18.87;;;9.80;;
15699;SDS011;7950;42.744;23.174;2023-02-28T15:29:37;19.23;;;11.10;;
15699;SDS011;7950;42.744;23.174;2023-02-28T15:32:23;17.47;;;11.27;;
15699;SDS011;7950;42.744;23.174;2023-02-28T15:34:56;14.50;;;9.37;;
15699;SDS011;7950;42.744;23.174;2023-02-28T15:37:28;19.10;;;10.00;;
15699;SDS011;7950;42.744;23.174;2023-02-28T15:40:14;16.33;;;9.67;;
15699;SDS011;7950;42.744;23.174;2023-02-28T15:43:03;13.77;;;9.43;;
15699;SDS011;7950;42.744;23.174;2023-02-28T15:45:34;15.60;;;8.70;;
15699;SDS011;7950;42.744;23.174;2023-02-28T15:48:15;12.40;;;8.20;;
15699;SDS011;7950;42.744;23.174;2023-02-28T15:50:48;15.63;;;8.53;;
15699;SDS011;7950;42.744;23.174;2023-02-28T15:53:21;14.67;;;8.13;;
15699;SDS011;7950;42.744;23.174;2023-02-28T15:55:54;20.70;;;8.73;;
15699;SDS011;7950;42.744;23.174;2023-02-28T15:58:28;16.07;;;8.60;;
15699;SDS011;7950;42.744;23.174;2023-02-28T16:01:04;18.87;;;9.17;;
15699;SDS011;7950;42.744;23.174;2023-02-28T16:03:50;13.43;;;8.40;;
15699;SDS011;7950;42.744;23.174;2023-02-28T16:06:37;13.80;;;8.53;;
15699;SDS011;7950;42.744;23.174;2023-02-28T16:09:10;13.47;;;7.97;;
15699;SDS011;7950;42.744;23.174;2023-02-28T16:11:42;14.03;;;8.07;;
15699;SDS011;7950;42.744;23.174;2023-02-28T16:14:16;14.00;;;8.70;;
15699;SDS011;7950;42.744;23.174;2023-02-28T16:16:48;16.43;;;8.60;;
15699;SDS011;7950;42.744;23.174;2023-02-28T16:19:21;19.40;;;10.57;;
15699;SDS011;7950;42.744;23.174;2023-02-28T16:21:50;21.73;;;16.70;;
15699;SDS011;7950;42.744;23.174;2023-02-28T16:24:19;18.77;;;12.03;;
15699;SDS011;7950;42.744;23.174;2023-02-28T16:26:48;21.93;;;14.07;;
15699;SDS011;7950;42.744;23.174;2023-02-28T16:29:21;20.93;;;11.03;;